createdAt,value
2022-08-30T00:02:21.919Z,101874.09
2022-08-30T00:04:54.222Z,101869.00
2022-08-30T00:07:22.564Z,101870.97
2022-08-30T00:09:49.816Z,101869.50
2022-08-30T00:12:17.276Z,101876.78
2022-08-30T00:14:44.611Z,101873.50
2022-08-30T00:17:11.946Z,101866.59
2022-08-30T00:19:39.686Z,101864.03
2022-08-30T00:22:07.317Z,101864.38
2022-08-30T00:24:34.589Z,101873.34
2022-08-30T00:27:01.911Z,101871.94
2022-08-30T00:29:30.676Z,101874.69
2022-08-30T00:31:57.998Z,101875.75
2022-08-30T00:34:25.293Z,101877.72
2022-08-30T00:36:52.540Z,101869.88
2022-08-30T00:39:20.450Z,101869.34
2022-08-30T00:41:48.624Z,101870.44
2022-08-30T00:44:16.165Z,101875.84
2022-08-30T00:46:43.576Z,101871.72
2022-08-30T00:49:13.317Z,101871.81
2022-08-30T00:51:41.846Z,101871.22
2022-08-30T00:54:10.244Z,101873.41
2022-08-30T00:56:37.842Z,101872.78
2022-08-30T00:59:08.605Z,101871.16
2022-08-30T01:01:37.651Z,101877.59
2022-08-30T01:04:09.801Z,101877.69
2022-08-30T01:06:39.890Z,101877.13
2022-08-30T01:09:07.804Z,101882.41
2022-08-30T01:11:38.582Z,101884.22
2022-08-30T01:14:07.497Z,101878.16
2022-08-30T01:16:36.838Z,101882.59
2022-08-30T01:19:10.500Z,101875.59
2022-08-30T01:21:57.035Z,101883.72
2022-08-30T01:24:24.715Z,101880.53
2022-08-30T01:26:52.081Z,101875.53
2022-08-30T01:29:25.784Z,101898.41
2022-08-30T01:31:53.150Z,101892.41
2022-08-30T01:34:20.857Z,101889.88
2022-08-30T01:36:49.460Z,101891.75
2022-08-30T01:39:19.259Z,101895.34
2022-08-30T01:41:47.296Z,101896.03
2022-08-30T01:44:16.918Z,101890.66
2022-08-30T01:46:47.885Z,101894.03
2022-08-30T01:49:23.111Z,101882.44
2022-08-30T01:52:00.768Z,101889.69
2022-08-30T01:54:38.138Z,101888.09
2022-08-30T01:57:13.479Z,101882.13
2022-08-30T01:59:47.629Z,101892.78
2022-08-30T02:02:27.004Z,101884.31
2022-08-30T02:04:56.553Z,101875.81
2022-08-30T02:07:26.167Z,101876.84
2022-08-30T02:09:54.187Z,101874.28
2022-08-30T02:12:21.478Z,101867.47
2022-08-30T02:14:48.850Z,101877.56
2022-08-30T02:17:17.103Z,101871.81
2022-08-30T02:19:44.453Z,101868.56
2022-08-30T02:22:13.388Z,101861.78
2022-08-30T02:24:40.743Z,101859.41
2022-08-30T02:27:08.306Z,101871.00
2022-08-30T02:29:35.888Z,101865.97
2022-08-30T02:32:04.232Z,101863.50
2022-08-30T02:34:31.935Z,101868.06
2022-08-30T02:36:59.329Z,101866.44
2022-08-30T02:39:26.680Z,101869.94
2022-08-30T02:41:54.013Z,101861.31
2022-08-30T02:44:21.543Z,101858.88
2022-08-30T02:46:49.010Z,101859.91
2022-08-30T02:52:06.753Z,101865.09
2022-08-30T02:54:34.169Z,101862.56
2022-08-30T02:57:05.126Z,101862.56
2022-08-30T02:59:33.485Z,101855.47
2022-08-30T03:02:00.830Z,101860.84
2022-08-30T03:04:28.356Z,101847.72
2022-08-30T03:06:55.746Z,101850.47
2022-08-30T03:09:23.048Z,101846.97
2022-08-30T03:11:50.373Z,101849.72
2022-08-30T03:14:17.710Z,101850.63
2022-08-30T03:16:45.059Z,101847.25
2022-08-30T03:19:12.475Z,101849.00
2022-08-30T03:21:39.789Z,101849.09
2022-08-30T03:24:07.523Z,101849.09
2022-08-30T03:26:34.868Z,101849.97
2022-08-30T03:29:03.009Z,101842.31
2022-08-30T03:31:30.506Z,101838.91
2022-08-30T03:34:05.513Z,101840.03
2022-08-30T03:36:33.449Z,101846.34
2022-08-30T03:39:00.844Z,101850.84
2022-08-30T03:41:28.514Z,101854.50
2022-08-30T03:43:59.983Z,101848.56
2022-08-30T03:46:28.892Z,101851.22
2022-08-30T03:48:56.780Z,101853.94
2022-08-30T03:51:25.941Z,101850.50
2022-08-30T03:53:53.283Z,101852.50
2022-08-30T03:56:20.959Z,101849.09
2022-08-30T03:58:48.413Z,101852.66
2022-08-30T04:01:15.830Z,101849.34
2022-08-30T04:03:43.492Z,101846.81
2022-08-30T04:06:11.284Z,101855.75
2022-08-30T04:08:39.282Z,101853.19
2022-08-30T04:11:07.600Z,101854.97
2022-08-30T04:13:35.007Z,101850.72
2022-08-30T04:16:02.666Z,101849.00
2022-08-30T04:18:30.108Z,101854.28
2022-08-30T04:20:57.653Z,101850.06
2022-08-30T04:23:24.932Z,101858.91
2022-08-30T04:25:52.527Z,101855.41
2022-08-30T04:28:19.899Z,101855.50
2022-08-30T04:30:47.463Z,101863.50
2022-08-30T04:33:19.974Z,101853.13
2022-08-30T04:35:50.095Z,101861.19
2022-08-30T04:38:18.550Z,101863.06
2022-08-30T04:40:50.155Z,101862.38
2022-08-30T04:43:17.738Z,101867.00
2022-08-30T04:45:45.289Z,101860.09
2022-08-30T04:48:12.709Z,101862.81
2022-08-30T04:50:40.382Z,101863.66
2022-08-30T04:53:15.010Z,101875.25
2022-08-30T04:55:44.388Z,101881.53
2022-08-30T04:58:12.125Z,101876.34
2022-08-30T05:00:42.105Z,101878.22
2022-08-30T05:03:09.656Z,101883.53
2022-08-30T05:05:39.867Z,101881.69
2022-08-30T05:08:14.349Z,101888.69
2022-08-30T05:10:49.653Z,101887.81
2022-08-30T05:13:21.355Z,101885.00
2022-08-30T05:16:07.064Z,101880.59
2022-08-30T05:18:37.089Z,101883.25
2022-08-30T05:21:20.656Z,101885.00
2022-08-30T05:23:50.247Z,101890.19
2022-08-30T05:26:28.278Z,101888.44
2022-08-30T05:28:56.391Z,101890.13
2022-08-30T05:31:28.859Z,101891.16
2022-08-30T05:33:57.771Z,101891.91
2022-08-30T05:36:30.674Z,101893.72
2022-08-30T05:39:00.513Z,101894.56
2022-08-30T05:41:29.038Z,101900.66
2022-08-30T05:44:02.469Z,101894.47
2022-08-30T05:49:07.833Z,101900.34
2022-08-30T05:51:41.091Z,101902.72
2022-08-30T05:54:14.976Z,101902.47
2022-08-30T05:56:46.444Z,101903.84
2022-08-30T05:59:15.614Z,101900.88
2022-08-30T06:01:47.031Z,101903.84
2022-08-30T06:04:15.752Z,101905.28
2022-08-30T06:06:44.386Z,101910.41
2022-08-30T06:09:14.634Z,101908.25
2022-08-30T06:11:44.361Z,101911.34
2022-08-30T06:14:12.858Z,101902.00
2022-08-30T06:16:41.744Z,101904.22
2022-08-30T06:19:10.985Z,101909.94
2022-08-30T06:21:40.576Z,101911.25
2022-08-30T06:24:11.570Z,101901.28
2022-08-30T06:26:45.011Z,101898.88
2022-08-30T06:29:18.980Z,101899.63
2022-08-30T06:31:47.508Z,101899.38
2022-08-30T06:34:17.206Z,101889.34
2022-08-30T06:36:45.496Z,101890.88
2022-08-30T06:39:14.348Z,101896.75
2022-08-30T06:41:43.063Z,101896.38
2022-08-30T06:44:23.081Z,101900.25
2022-08-30T06:46:50.492Z,101894.69
2022-08-30T06:49:17.852Z,101909.91
2022-08-30T06:51:45.218Z,101905.47
2022-08-30T06:54:13.352Z,101906.41
2022-08-30T06:56:55.146Z,101907.81
2022-08-30T06:59:25.966Z,101905.34
2022-08-30T07:01:56.476Z,101902.03
2022-08-30T07:04:25.261Z,101900.72
2022-08-30T07:06:53.254Z,101904.28
2022-08-30T07:09:23.061Z,101906.22
2022-08-30T07:11:52.991Z,101906.78
2022-08-30T07:14:21.888Z,101904.16
2022-08-30T07:16:50.824Z,101901.41
2022-08-30T07:19:21.098Z,101899.97
2022-08-30T07:21:50.429Z,101901.03
2022-08-30T07:24:19.009Z,101902.13
2022-08-30T07:26:52.101Z,101899.50
2022-08-30T07:29:21.295Z,101901.56
2022-08-30T07:31:48.803Z,101903.91
2022-08-30T07:34:16.086Z,101906.91
2022-08-30T07:36:43.419Z,101916.09
2022-08-30T07:39:10.732Z,101904.66
2022-08-30T07:41:38.741Z,101903.28
2022-08-30T07:44:09.047Z,101911.03
2022-08-30T07:46:38.981Z,101911.44
2022-08-30T07:49:11.132Z,101912.09
2022-08-30T07:51:40.790Z,101907.91
2022-08-30T07:54:08.823Z,101926.47
2022-08-30T07:56:36.353Z,101917.97
2022-08-30T07:59:03.956Z,101924.66
2022-08-30T08:01:32.151Z,101923.72
2022-08-30T08:03:59.541Z,101921.78
2022-08-30T08:06:27.719Z,101921.47
2022-08-30T08:09:02.490Z,101922.75
2022-08-30T08:11:33.644Z,101918.44
2022-08-30T08:14:04.306Z,101921.31
2022-08-30T08:16:35.676Z,101922.13
2022-08-30T08:19:08.811Z,101921.06
2022-08-30T08:21:37.467Z,101929.94
2022-08-30T08:24:06.216Z,101922.28
2022-08-30T08:26:37.233Z,101930.75
2022-08-30T08:29:08.024Z,101927.97
2022-08-30T08:31:35.527Z,101934.75
2022-08-30T08:34:05.869Z,101925.34
2022-08-30T08:36:35.999Z,101924.53
2022-08-30T08:39:08.070Z,101926.97
2022-08-30T08:41:59.088Z,101935.25
2022-08-30T08:44:51.041Z,101928.28
2022-08-30T08:47:55.602Z,101926.25
2022-08-30T08:50:23.955Z,101935.09
2022-08-30T08:53:46.247Z,101929.69
2022-08-30T08:56:18.645Z,101930.88
2022-08-30T08:59:11.591Z,101939.97
2022-08-30T09:01:39.237Z,101936.72
2022-08-30T09:04:17.584Z,101941.66
2022-08-30T09:07:39.866Z,101937.22
2022-08-30T09:10:08.711Z,101944.63
2022-08-30T09:12:36.209Z,101938.56
2022-08-30T09:15:18.115Z,101941.19
2022-08-30T09:18:02.393Z,101944.81
2022-08-30T09:20:49.077Z,101940.44
2022-08-30T09:23:16.310Z,101936.16
2022-08-30T09:26:03.883Z,101937.50
2022-08-30T09:29:01.097Z,101941.00
2022-08-30T09:31:46.702Z,101943.22
2022-08-30T09:34:23.822Z,101943.94
2022-08-30T09:36:56.025Z,101937.13
2022-08-30T09:39:37.412Z,101947.41
2022-08-30T09:42:25.448Z,101937.69
2022-08-30T09:45:10.658Z,101944.75
2022-08-30T09:47:43.922Z,101939.53
2022-08-30T09:50:21.126Z,101948.09
2022-08-30T09:53:28.126Z,101938.28
2022-08-30T09:56:21.091Z,101936.47
2022-08-30T09:59:34.672Z,101935.34
2022-08-30T10:02:38.016Z,101938.72
2022-08-30T10:05:57.967Z,101933.22
2022-08-30T10:08:42.443Z,101936.09
2022-08-30T10:11:56.555Z,101925.63
2022-08-30T10:14:38.885Z,101934.66
2022-08-30T10:17:33.604Z,101933.66
2022-08-30T10:20:27.208Z,101941.38
2022-08-30T10:23:29.653Z,101931.25
2022-08-30T10:26:22.768Z,101929.56
2022-08-30T10:29:06.716Z,101932.09
2022-08-30T10:31:50.764Z,101926.19
2022-08-30T10:34:37.982Z,101930.97
2022-08-30T10:37:17.445Z,101922.78
2022-08-30T10:39:56.410Z,101930.72
2022-08-30T10:42:38.056Z,101934.13
2022-08-30T10:45:16.336Z,101926.88
2022-08-30T10:48:21.417Z,101922.13
2022-08-30T10:50:56.836Z,101921.31
2022-08-30T10:53:46.595Z,101919.00
2022-08-30T10:56:21.446Z,101922.16
2022-08-30T10:58:50.887Z,101911.97
2022-08-30T11:01:58.280Z,101917.38
2022-08-30T11:05:02.446Z,101919.47
2022-08-30T11:07:55.925Z,101919.91
2022-08-30T11:10:49.435Z,101909.97
2022-08-30T11:13:34.954Z,101915.75
2022-08-30T11:16:15.642Z,101906.69
2022-08-30T11:18:52.497Z,101898.59
2022-08-30T11:21:42.620Z,101908.13
2022-08-30T11:24:21.798Z,101907.13
2022-08-30T11:26:48.955Z,101897.34
2022-08-30T11:29:39.931Z,101901.06
2022-08-30T11:32:13.001Z,101901.75
2022-08-30T11:34:46.477Z,101903.78
2022-08-30T11:37:44.513Z,101907.03
2022-08-30T11:40:20.984Z,101903.97
2022-08-30T11:42:54.381Z,101890.31
2022-08-30T11:45:26.642Z,101897.88
2022-08-30T11:48:05.626Z,101898.06
2022-08-30T11:51:34.767Z,101890.94
2022-08-30T11:54:28.387Z,101890.38
2022-08-30T11:57:15.781Z,101891.63
2022-08-30T12:00:03.535Z,101880.75
2022-08-30T12:02:56.761Z,101888.41
2022-08-30T12:05:39.559Z,101889.97
2022-08-30T12:08:33.986Z,101888.38
2022-08-30T12:11:33.414Z,101884.56
2022-08-30T12:14:09.021Z,101883.00
2022-08-30T12:17:07.084Z,101883.47
2022-08-30T12:19:34.717Z,101886.75
2022-08-30T12:22:07.196Z,101886.53
2022-08-30T12:24:52.020Z,101877.66
2022-08-30T12:27:32.686Z,101874.84
2022-08-30T12:30:09.929Z,101880.34
2022-08-30T12:32:50.559Z,101866.38
2022-08-30T12:35:28.377Z,101866.66
2022-08-30T12:38:07.363Z,101866.78
2022-08-30T12:40:35.259Z,101866.78
2022-08-30T12:43:22.388Z,101859.72
2022-08-30T12:45:57.823Z,101871.53
2022-08-30T12:48:41.020Z,101858.72
2022-08-30T12:51:10.943Z,101863.25
2022-08-30T12:53:43.098Z,101861.88
2022-08-30T12:56:21.165Z,101852.41
2022-08-30T12:58:57.825Z,101854.66
2022-08-30T13:01:37.071Z,101865.59
2022-08-30T13:04:22.079Z,101858.13
2022-08-30T13:07:02.100Z,101853.72
2022-08-30T13:09:42.418Z,101855.91
2022-08-30T13:12:28.359Z,101839.19
2022-08-30T13:15:27.808Z,101853.63
2022-08-30T13:18:27.686Z,101847.88
2022-08-30T13:21:35.647Z,101846.97
2022-08-30T13:24:06.338Z,101836.59
2022-08-30T13:26:40.036Z,101838.75
2022-08-30T13:29:15.647Z,101841.56
2022-08-30T13:31:43.008Z,101825.66
2022-08-30T13:34:11.511Z,101831.47
2022-08-30T13:36:50.711Z,101835.19
2022-08-30T13:39:18.444Z,101824.44
2022-08-30T13:41:51.567Z,101830.97
2022-08-30T13:44:20.294Z,101825.59
2022-08-30T13:47:32.209Z,101828.94
2022-08-30T13:49:45.771Z,101820.06
2022-08-30T13:52:22.888Z,101810.69
2022-08-30T13:54:54.413Z,101816.53
2022-08-30T14:00:21.886Z,101798.88
2022-08-30T14:02:57.184Z,101808.91
2022-08-30T14:05:50.555Z,101805.72
2022-08-30T14:08:47.722Z,101805.06
2022-08-30T14:11:22.422Z,101803.59
2022-08-30T14:16:43.950Z,101808.81
2022-08-30T14:19:14.262Z,101805.16
2022-08-30T14:21:43.079Z,101805.81
2022-08-30T14:24:12.859Z,101806.31
2022-08-30T14:26:51.264Z,101805.81
2022-08-30T14:29:26.094Z,101797.75
2022-08-30T14:31:53.866Z,101800.75
2022-08-30T14:34:23.036Z,101799.88
2022-08-30T14:36:50.643Z,101797.75
2022-08-30T14:39:21.040Z,101803.13
2022-08-30T14:41:55.630Z,101812.53
2022-08-30T14:44:25.082Z,101807.59
2022-08-30T14:46:53.273Z,101815.50
2022-08-30T14:49:21.654Z,101804.25
2022-08-30T14:51:51.707Z,101799.75
2022-08-30T14:54:28.651Z,101792.53
2022-08-30T14:56:57.775Z,101789.25
2022-08-30T14:59:27.071Z,101796.84
2022-08-30T15:01:55.275Z,101787.41
2022-08-30T15:04:23.138Z,101797.34
2022-08-30T15:06:51.796Z,101796.00
2022-08-30T15:09:24.621Z,101791.25
2022-08-30T15:11:58.796Z,101790.72
2022-08-30T15:14:28.163Z,101789.69
2022-08-30T15:16:58.414Z,101788.44
2022-08-30T15:19:27.132Z,101784.69
2022-08-30T15:21:55.162Z,101787.97
2022-08-30T15:24:29.788Z,101780.72
2022-08-30T15:27:00.445Z,101786.47
2022-08-30T15:29:30.617Z,101783.00
2022-08-30T15:32:00.965Z,101776.88
2022-08-30T15:34:31.102Z,101777.78
2022-08-30T15:36:58.610Z,101768.91
2022-08-30T15:39:26.487Z,101765.31
2022-08-30T15:41:57.350Z,101765.94
2022-08-30T15:44:27.299Z,101762.06
2022-08-30T15:46:55.337Z,101761.34
2022-08-30T15:49:24.848Z,101757.78
2022-08-30T15:51:53.841Z,101766.13
2022-08-30T15:54:24.126Z,101754.63
2022-08-30T15:56:59.101Z,101756.06
2022-08-30T15:59:31.998Z,101767.31
2022-08-30T16:02:00.265Z,101766.94
2022-08-30T16:04:27.973Z,101765.00
2022-08-30T16:06:55.710Z,101768.81
2022-08-30T16:09:23.654Z,101752.66
2022-08-30T16:11:51.170Z,101758.22
2022-08-30T16:14:19.000Z,101746.81
2022-08-30T16:16:46.550Z,101749.94
2022-08-30T16:19:14.434Z,101745.75
2022-08-30T16:21:44.040Z,101750.25
2022-08-30T16:24:14.221Z,101740.56
2022-08-30T16:26:43.501Z,101743.69
2022-08-30T16:29:14.753Z,101739.94
2022-08-30T16:31:44.426Z,101743.50
2022-08-30T16:34:15.591Z,101746.94
2022-08-30T16:36:43.472Z,101744.88
2022-08-30T16:39:12.995Z,101743.63
2022-08-30T16:41:44.380Z,101740.13
2022-08-30T16:44:13.494Z,101736.75
2022-08-30T16:46:43.504Z,101735.38
2022-08-30T16:49:19.804Z,101731.44
2022-08-30T16:51:47.132Z,101745.28
2022-08-30T16:54:14.681Z,101729.66
2022-08-30T16:56:41.967Z,101739.00
2022-08-30T16:59:11.533Z,101740.69
2022-08-30T17:01:42.021Z,101743.50
2022-08-30T17:04:11.179Z,101745.66
2022-08-30T17:06:41.178Z,101741.13
2022-08-30T17:09:09.705Z,101745.25
2022-08-30T17:11:38.626Z,101742.00
2022-08-30T17:14:08.338Z,101738.94
2022-08-30T17:16:36.973Z,101746.59
2022-08-30T17:19:07.840Z,101747.84
2022-08-30T17:21:35.964Z,101738.41
2022-08-30T17:24:04.235Z,101745.59
2022-08-30T17:26:35.317Z,101751.78
2022-08-30T17:29:04.850Z,101746.72
2022-08-30T17:31:32.835Z,101746.19
2022-08-30T17:34:04.263Z,101746.47
2022-08-30T17:36:36.905Z,101748.19
2022-08-30T17:39:11.033Z,101742.88
2022-08-30T17:41:50.004Z,101754.31
2022-08-30T17:44:26.926Z,101749.53
2022-08-30T17:46:56.887Z,101758.41
2022-08-30T17:49:27.271Z,101756.84
2022-08-30T17:51:57.071Z,101756.44
2022-08-30T17:54:28.453Z,101763.91
2022-08-30T17:56:58.024Z,101779.53
2022-08-30T17:59:27.088Z,101779.28
2022-08-30T18:01:59.400Z,101785.31
2022-08-30T18:04:27.094Z,101789.25
2022-08-30T18:06:55.992Z,101782.78
2022-08-30T18:09:24.174Z,101789.81
2022-08-30T18:11:52.168Z,101789.66
2022-08-30T18:14:24.264Z,101783.47
2022-08-30T18:16:53.424Z,101783.59
2022-08-30T18:19:45.905Z,101794.28
2022-08-30T18:22:16.182Z,101792.44
2022-08-30T18:24:44.600Z,101790.34
2022-08-30T18:27:12.614Z,101792.00
2022-08-30T18:29:41.417Z,101793.69
2022-08-30T18:32:09.075Z,101805.97
2022-08-30T18:34:36.713Z,101805.53
2022-08-30T18:37:04.144Z,101810.69
2022-08-30T18:39:34.565Z,101811.97
2022-08-30T18:42:05.026Z,101809.09
2022-08-30T18:44:34.846Z,101808.78
2022-08-30T18:47:05.675Z,101811.16
2022-08-30T18:49:36.355Z,101817.59
2022-08-30T18:52:09.925Z,101815.19
2022-08-30T18:54:42.473Z,101821.88
2022-08-30T18:57:11.543Z,101816.38
2022-08-30T18:59:42.032Z,101817.88
2022-08-30T19:02:15.387Z,101825.28
2022-08-30T19:04:45.458Z,101820.00
2022-08-30T19:07:16.362Z,101823.88
2022-08-30T19:09:45.361Z,101829.72
2022-08-30T19:12:13.621Z,101831.34
2022-08-30T19:14:41.274Z,101837.19
2022-08-30T19:17:09.200Z,101835.91
2022-08-30T19:19:49.077Z,101838.22
2022-08-30T19:22:21.774Z,101838.75
2022-08-30T19:24:51.193Z,101843.69
2022-08-30T19:27:37.193Z,101838.03
2022-08-30T19:30:23.109Z,101835.16
2022-08-30T19:32:53.950Z,101836.50
2022-08-30T19:35:22.119Z,101834.31
2022-08-30T19:37:49.514Z,101839.28
2022-08-30T19:40:20.040Z,101844.25
2022-08-30T19:42:51.413Z,101849.94
2022-08-30T19:45:21.924Z,101842.19
2022-08-30T19:47:51.928Z,101842.81
2022-08-30T19:50:21.714Z,101841.50
2022-08-30T19:52:54.212Z,101847.44
2022-08-30T19:55:28.363Z,101846.09
2022-08-30T19:57:57.807Z,101850.06
2022-08-30T20:00:25.902Z,101845.09
2022-08-30T20:02:53.322Z,101849.94
2022-08-30T20:05:22.087Z,101845.09
2022-08-30T20:07:51.699Z,101843.63
2022-08-30T20:10:20.772Z,101839.91
2022-08-30T20:12:53.402Z,101841.81
2022-08-30T20:15:21.308Z,101844.81
2022-08-30T20:18:06.347Z,101847.72
2022-08-30T20:20:37.298Z,101849.97
2022-08-30T20:23:06.073Z,101843.47
2022-08-30T20:25:35.212Z,101849.97
2022-08-30T20:28:06.357Z,101853.69
2022-08-30T20:30:34.532Z,101859.34
2022-08-30T20:33:06.977Z,101851.84
2022-08-30T20:35:36.588Z,101855.84
2022-08-30T20:38:06.621Z,101857.97
2022-08-30T20:40:38.540Z,101860.13
2022-08-30T20:43:07.226Z,101849.84
2022-08-30T20:45:35.294Z,101861.66
2022-08-30T20:48:03.472Z,101855.84
2022-08-30T20:50:31.342Z,101856.19
2022-08-30T20:52:58.691Z,101853.84
2022-08-30T20:55:27.049Z,101859.28
2022-08-30T20:57:54.490Z,101853.59
2022-08-30T21:00:22.495Z,101855.72
2022-08-30T21:02:50.713Z,101855.81
2022-08-30T21:05:18.805Z,101855.94
2022-08-30T21:07:46.909Z,101856.22
2022-08-30T21:10:17.874Z,101855.63
2022-08-30T21:12:49.382Z,101862.22
2022-08-30T21:15:36.303Z,101856.41
2022-08-30T21:18:04.238Z,101862.97
2022-08-30T21:20:31.642Z,101861.63
2022-08-30T21:22:59.119Z,101865.34
2022-08-30T21:25:26.482Z,101870.88
2022-08-30T21:27:54.963Z,101874.69
2022-08-30T21:30:22.416Z,101876.63
2022-08-30T21:32:49.711Z,101868.97
2022-08-30T21:35:35.896Z,101862.31
2022-08-30T21:38:06.569Z,101870.72
2022-08-30T21:40:34.000Z,101868.38
2022-08-30T21:43:05.687Z,101872.09
2022-08-30T21:45:42.389Z,101869.66
2022-08-30T21:48:13.264Z,101867.22
2022-08-30T21:50:43.070Z,101878.97
2022-08-30T21:53:11.059Z,101880.78
2022-08-30T21:55:45.808Z,101878.13
2022-08-30T21:58:15.921Z,101877.41
2022-08-30T22:00:43.534Z,101886.31
2022-08-30T22:03:12.686Z,101882.91
2022-08-30T22:05:40.881Z,101887.34
2022-08-30T22:08:08.336Z,101889.91
2022-08-30T22:10:35.882Z,101889.06
2022-08-30T22:13:03.636Z,101883.03
2022-08-30T22:15:31.222Z,101891.72
2022-08-30T22:17:58.603Z,101890.47
2022-08-30T22:20:26.613Z,101886.72
2022-08-30T22:22:58.255Z,101888.53
2022-08-30T22:25:25.716Z,101893.72
2022-08-30T22:27:53.075Z,101889.06
2022-08-30T22:30:20.716Z,101895.13
2022-08-30T22:32:48.219Z,101883.44
2022-08-30T22:35:16.198Z,101894.91
2022-08-30T22:37:47.573Z,101886.84
2022-08-30T22:40:16.231Z,101904.22
2022-08-30T22:42:48.168Z,101902.13
2022-08-30T22:45:16.010Z,101906.91
2022-08-30T22:47:43.453Z,101905.81
2022-08-30T22:50:13.250Z,101907.41
2022-08-30T22:52:41.099Z,101901.22
2022-08-30T22:55:09.239Z,101901.88
2022-08-30T22:57:39.639Z,101898.34
2022-08-30T23:00:15.722Z,101904.66
2022-08-30T23:02:49.447Z,101907.09
2022-08-30T23:05:20.861Z,101903.34
2022-08-30T23:07:48.435Z,101909.84
2022-08-30T23:10:16.179Z,101906.31
2022-08-30T23:12:44.001Z,101910.16
2022-08-30T23:15:16.151Z,101905.91
2022-08-30T23:17:43.885Z,101912.19
2022-08-30T23:20:11.570Z,101909.34
2022-08-30T23:22:39.179Z,101908.69
2022-08-30T23:25:26.242Z,101906.03
2022-08-30T23:28:19.088Z,101902.53
2022-08-30T23:31:07.103Z,101905.28
2022-08-30T23:33:53.111Z,101909.09
2022-08-30T23:36:38.954Z,101916.34
2022-08-30T23:39:24.894Z,101912.19
2022-08-30T23:42:10.814Z,101920.25
2022-08-30T23:44:56.947Z,101918.22
2022-08-30T23:47:42.920Z,101911.78
2022-08-30T23:50:28.829Z,101915.47
2022-08-30T23:53:15.132Z,101916.63
2022-08-30T23:56:01.133Z,101912.63
2022-08-30T23:58:47.400Z,101915.38
